sensor_id;sensor_type;location;lat;lon;timestamp;temperature;humidity
20568;DHT22;10442;49.932;11.592;2024-03-06T00:01:22;11.50;72.90
20568;DHT22;10442;49.932;11.592;2024-03-06T00:03:49;11.50;72.90
20568;DHT22;10442;49.932;11.592;2024-03-06T00:06:16;11.50;73.00
20568;DHT22;10442;49.932;11.592;2024-03-06T00:08:45;11.50;72.90
20568;DHT22;10442;49.932;11.592;2024-03-06T00:11:14;11.50;72.90
20568;DHT22;10442;49.932;11.592;2024-03-06T00:13:41;11.50;72.90
20568;DHT22;10442;49.932;11.592;2024-03-06T00:16:09;11.50;72.90
20568;DHT22;10442;49.932;11.592;2024-03-06T00:18:36;11.50;73.60
20568;DHT22;10442;49.932;11.592;2024-03-06T00:21:04;11.50;72.90
20568;DHT22;10442;49.932;11.592;2024-03-06T00:23:32;11.50;73.00
20568;DHT22;10442;49.932;11.592;2024-03-06T00:26:00;11.50;73.00
20568;DHT22;10442;49.932;11.592;2024-03-06T00:28:27;11.50;73.00
20568;DHT22;10442;49.932;11.592;2024-03-06T00:30:55;11.50;72.90
20568;DHT22;10442;49.932;11.592;2024-03-06T00:33:23;11.50;73.10
20568;DHT22;10442;49.932;11.592;2024-03-06T00:35:51;11.50;73.20
20568;DHT22;10442;49.932;11.592;2024-03-06T00:38:18;11.50;73.20
20568;DHT22;10442;49.932;11.592;2024-03-06T00:40:46;11.60;73.20
20568;DHT22;10442;49.932;11.592;2024-03-06T00:43:14;11.60;73.10
20568;DHT22;10442;49.932;11.592;2024-03-06T00:45:41;11.60;73.10
20568;DHT22;10442;49.932;11.592;2024-03-06T00:48:09;11.60;73.00
20568;DHT22;10442;49.932;11.592;2024-03-06T00:50:36;11.50;72.90
20568;DHT22;10442;49.932;11.592;2024-03-06T00:53:05;11.60;73.10
20568;DHT22;10442;49.932;11.592;2024-03-06T00:55:33;11.60;73.00
20568;DHT22;10442;49.932;11.592;2024-03-06T00:58:00;11.60;73.00
20568;DHT22;10442;49.932;11.592;2024-03-06T01:00:30;11.60;73.00
20568;DHT22;10442;49.932;11.592;2024-03-06T01:02:57;11.60;73.00
20568;DHT22;10442;49.932;11.592;2024-03-06T01:05:25;11.60;72.90
20568;DHT22;10442;49.932;11.592;2024-03-06T01:07:52;11.60;72.90
20568;DHT22;10442;49.932;11.592;2024-03-06T01:10:22;11.60;72.90
20568;DHT22;10442;49.932;11.592;2024-03-06T01:12:50;11.60;73.00
20568;DHT22;10442;49.932;11.592;2024-03-06T01:15:17;11.60;73.00
20568;DHT22;10442;49.932;11.592;2024-03-06T01:17:46;11.50;72.90
20568;DHT22;10442;49.932;11.592;2024-03-06T01:20:15;11.60;73.00
20568;DHT22;10442;49.932;11.592;2024-03-06T01:22:43;11.60;73.00
20568;DHT22;10442;49.932;11.592;2024-03-06T01:25:13;11.60;73.00
20568;DHT22;10442;49.932;11.592;2024-03-06T01:27:41;11.60;72.90
20568;DHT22;10442;49.932;11.592;2024-03-06T01:30:10;11.60;72.90
20568;DHT22;10442;49.932;11.592;2024-03-06T01:32:37;11.60;72.90
20568;DHT22;10442;49.932;11.592;2024-03-06T01:35:05;11.60;73.10
20568;DHT22;10442;49.932;11.592;2024-03-06T01:37:33;11.60;72.80
20568;DHT22;10442;49.932;11.592;2024-03-06T01:40:01;11.60;72.80
20568;DHT22;10442;49.932;11.592;2024-03-06T01:42:32;11.60;72.90
20568;DHT22;10442;49.932;11.592;2024-03-06T01:45:02;11.60;73.00
20568;DHT22;10442;49.932;11.592;2024-03-06T01:47:32;11.60;73.00
20568;DHT22;10442;49.932;11.592;2024-03-06T01:50:01;11.60;73.10
20568;DHT22;10442;49.932;11.592;2024-03-06T01:52:29;11.60;73.20
20568;DHT22;10442;49.932;11.592;2024-03-06T01:54:59;11.60;73.20
20568;DHT22;10442;49.932;11.592;2024-03-06T01:57:27;11.60;73.30
20568;DHT22;10442;49.932;11.592;2024-03-06T01:59:56;11.50;73.30
20568;DHT22;10442;49.932;11.592;2024-03-06T02:02:24;11.60;74.10
20568;DHT22;10442;49.932;11.592;2024-03-06T02:04:54;11.60;73.30
20568;DHT22;10442;49.932;11.592;2024-03-06T02:07:24;11.60;73.30
20568;DHT22;10442;49.932;11.592;2024-03-06T02:09:53;11.50;73.20
20568;DHT22;10442;49.932;11.592;2024-03-06T02:12:20;11.50;73.30
20568;DHT22;10442;49.932;11.592;2024-03-06T02:14:49;11.50;73.30
20568;DHT22;10442;49.932;11.592;2024-03-06T02:17:17;11.50;73.40
20568;DHT22;10442;49.932;11.592;2024-03-06T02:19:45;11.50;73.30
20568;DHT22;10442;49.932;11.592;2024-03-06T02:22:17;11.50;73.30
20568;DHT22;10442;49.932;11.592;2024-03-06T02:24:47;11.50;73.30
20568;DHT22;10442;49.932;11.592;2024-03-06T02:27:15;11.50;74.10
20568;DHT22;10442;49.932;11.592;2024-03-06T02:29:43;11.50;73.10
20568;DHT22;10442;49.932;11.592;2024-03-06T02:32:12;11.50;73.00
20568;DHT22;10442;49.932;11.592;2024-03-06T02:34:42;11.40;72.70
20568;DHT22;10442;49.932;11.592;2024-03-06T02:37:10;11.40;72.50
20568;DHT22;10442;49.932;11.592;2024-03-06T02:39:38;11.40;72.50
20568;DHT22;10442;49.932;11.592;2024-03-06T02:42:06;11.40;72.50
20568;DHT22;10442;49.932;11.592;2024-03-06T02:44:34;11.30;72.30
20568;DHT22;10442;49.932;11.592;2024-03-06T02:47:02;11.30;72.30
20568;DHT22;10442;49.932;11.592;2024-03-06T02:49:30;11.30;72.40
20568;DHT22;10442;49.932;11.592;2024-03-06T02:51:57;11.30;72.30
20568;DHT22;10442;49.932;11.592;2024-03-06T02:54:28;11.30;72.30
20568;DHT22;10442;49.932;11.592;2024-03-06T02:56:55;11.30;72.30
20568;DHT22;10442;49.932;11.592;2024-03-06T02:59:23;11.30;72.20
20568;DHT22;10442;49.932;11.592;2024-03-06T03:01:51;11.30;72.20
20568;DHT22;10442;49.932;11.592;2024-03-06T03:04:18;11.30;72.20
20568;DHT22;10442;49.932;11.592;2024-03-06T03:06:46;11.30;72.20
20568;DHT22;10442;49.932;11.592;2024-03-06T03:09:13;11.30;72.20
20568;DHT22;10442;49.932;11.592;2024-03-06T03:11:42;11.30;72.20
20568;DHT22;10442;49.932;11.592;2024-03-06T03:14:11;11.30;72.20
20568;DHT22;10442;49.932;11.592;2024-03-06T03:16:39;11.30;72.10
20568;DHT22;10442;49.932;11.592;2024-03-06T03:19:07;11.30;72.20
20568;DHT22;10442;49.932;11.592;2024-03-06T03:21:36;11.30;72.20
20568;DHT22;10442;49.932;11.592;2024-03-06T03:24:04;11.20;72.10
20568;DHT22;10442;49.932;11.592;2024-03-06T03:26:32;11.30;72.10
20568;DHT22;10442;49.932;11.592;2024-03-06T03:28:59;11.30;72.20
20568;DHT22;10442;49.932;11.592;2024-03-06T03:31:27;11.30;72.20
20568;DHT22;10442;49.932;11.592;2024-03-06T03:33:55;11.30;72.20
20568;DHT22;10442;49.932;11.592;2024-03-06T03:36:22;11.30;72.10
20568;DHT22;10442;49.932;11.592;2024-03-06T03:38:50;11.20;72.00
20568;DHT22;10442;49.932;11.592;2024-03-06T03:41:20;11.20;71.90
20568;DHT22;10442;49.932;11.592;2024-03-06T03:43:48;11.20;71.90
20568;DHT22;10442;49.932;11.592;2024-03-06T03:46:16;11.20;71.90
20568;DHT22;10442;49.932;11.592;2024-03-06T03:48:44;11.20;71.90
20568;DHT22;10442;49.932;11.592;2024-03-06T03:51:12;11.10;71.90
20568;DHT22;10442;49.932;11.592;2024-03-06T03:53:40;11.10;72.00
20568;DHT22;10442;49.932;11.592;2024-03-06T03:56:08;11.10;72.10
20568;DHT22;10442;49.932;11.592;2024-03-06T03:58:35;11.10;72.90
20568;DHT22;10442;49.932;11.592;2024-03-06T04:01:04;11.00;72.20
20568;DHT22;10442;49.932;11.592;2024-03-06T04:03:31;11.00;72.30
20568;DHT22;10442;49.932;11.592;2024-03-06T04:06:00;11.00;72.30
20568;DHT22;10442;49.932;11.592;2024-03-06T04:08:27;11.00;72.40
20568;DHT22;10442;49.932;11.592;2024-03-06T04:10:55;11.00;72.40
20568;DHT22;10442;49.932;11.592;2024-03-06T04:13:24;11.00;72.40
20568;DHT22;10442;49.932;11.592;2024-03-06T04:15:52;10.90;72.30
20568;DHT22;10442;49.932;11.592;2024-03-06T04:18:19;10.90;72.30
20568;DHT22;10442;49.932;11.592;2024-03-06T04:20:48;10.90;72.30
20568;DHT22;10442;49.932;11.592;2024-03-06T04:23:15;10.90;72.20
20568;DHT22;10442;49.932;11.592;2024-03-06T04:25:44;10.80;72.10
20568;DHT22;10442;49.932;11.592;2024-03-06T04:28:12;10.80;72.10
20568;DHT22;10442;49.932;11.592;2024-03-06T04:30:40;10.80;72.10
20568;DHT22;10442;49.932;11.592;2024-03-06T04:33:07;10.70;72.10
20568;DHT22;10442;49.932;11.592;2024-03-06T04:35:36;10.70;72.10
20568;DHT22;10442;49.932;11.592;2024-03-06T04:38:04;10.60;72.20
20568;DHT22;10442;49.932;11.592;2024-03-06T04:40:33;10.60;72.30
20568;DHT22;10442;49.932;11.592;2024-03-06T04:43:01;10.50;72.40
20568;DHT22;10442;49.932;11.592;2024-03-06T04:45:29;10.50;72.50
20568;DHT22;10442;49.932;11.592;2024-03-06T04:47:57;10.40;72.60
20568;DHT22;10442;49.932;11.592;2024-03-06T04:50:26;10.40;72.60
20568;DHT22;10442;49.932;11.592;2024-03-06T04:52:54;10.40;72.70
20568;DHT22;10442;49.932;11.592;2024-03-06T04:55:23;10.30;72.80
20568;DHT22;10442;49.932;11.592;2024-03-06T04:57:52;10.30;72.90
20568;DHT22;10442;49.932;11.592;2024-03-06T05:00:20;10.30;72.90
20568;DHT22;10442;49.932;11.592;2024-03-06T05:02:49;10.20;72.90
20568;DHT22;10442;49.932;11.592;2024-03-06T05:05:35;10.20;73.10
20568;DHT22;10442;49.932;11.592;2024-03-06T05:08:21;10.10;73.00
20568;DHT22;10442;49.932;11.592;2024-03-06T05:11:06;10.10;72.90
20568;DHT22;10442;49.932;11.592;2024-03-06T05:13:52;10.00;72.90
20568;DHT22;10442;49.932;11.592;2024-03-06T05:16:37;9.90;72.90
20568;DHT22;10442;49.932;11.592;2024-03-06T05:19:23;9.80;73.00
20568;DHT22;10442;49.932;11.592;2024-03-06T05:22:08;9.70;73.90
20568;DHT22;10442;49.932;11.592;2024-03-06T05:24:53;9.60;73.20
20568;DHT22;10442;49.932;11.592;2024-03-06T05:27:40;9.50;73.40
20568;DHT22;10442;49.932;11.592;2024-03-06T05:30:26;9.50;73.80
20568;DHT22;10442;49.932;11.592;2024-03-06T05:33:14;9.40;74.10
20568;DHT22;10442;49.932;11.592;2024-03-06T05:36:00;9.40;74.10
20568;DHT22;10442;49.932;11.592;2024-03-06T05:38:45;9.40;74.20
20568;DHT22;10442;49.932;11.592;2024-03-06T05:41:30;9.40;74.40
20568;DHT22;10442;49.932;11.592;2024-03-06T05:44:16;9.30;74.50
20568;DHT22;10442;49.932;11.592;2024-03-06T05:47:02;9.30;74.60
20568;DHT22;10442;49.932;11.592;2024-03-06T05:49:47;9.30;74.60
20568;DHT22;10442;49.932;11.592;2024-03-06T05:52:33;9.30;74.50
20568;DHT22;10442;49.932;11.592;2024-03-06T05:55:19;9.30;74.50
20568;DHT22;10442;49.932;11.592;2024-03-06T05:58:05;9.30;74.40
20568;DHT22;10442;49.932;11.592;2024-03-06T06:00:39;9.20;74.10
20568;DHT22;10442;49.932;11.592;2024-03-06T06:03:08;9.20;74.10
20568;DHT22;10442;49.932;11.592;2024-03-06T06:05:38;9.10;74.10
20568;DHT22;10442;49.932;11.592;2024-03-06T06:08:07;9.10;74.20
20568;DHT22;10442;49.932;11.592;2024-03-06T06:10:34;9.00;74.30
20568;DHT22;10442;49.932;11.592;2024-03-06T06:13:02;9.00;74.60
20568;DHT22;10442;49.932;11.592;2024-03-06T06:15:33;8.90;74.90
20568;DHT22;10442;49.932;11.592;2024-03-06T06:18:01;8.90;75.10
20568;DHT22;10442;49.932;11.592;2024-03-06T06:20:29;8.90;75.40
20568;DHT22;10442;49.932;11.592;2024-03-06T06:22:57;8.90;75.70
20568;DHT22;10442;49.932;11.592;2024-03-06T06:25:28;9.00;75.90
20568;DHT22;10442;49.932;11.592;2024-03-06T06:27:55;9.00;75.90
20568;DHT22;10442;49.932;11.592;2024-03-06T06:30:23;9.10;76.10
20568;DHT22;10442;49.932;11.592;2024-03-06T06:32:51;9.20;76.10
20568;DHT22;10442;49.932;11.592;2024-03-06T06:35:19;9.20;76.10
20568;DHT22;10442;49.932;11.592;2024-03-06T06:37:47;9.30;76.00
20568;DHT22;10442;49.932;11.592;2024-03-06T06:40:15;9.40;76.10
20568;DHT22;10442;49.932;11.592;2024-03-06T06:42:46;9.50;76.10
20568;DHT22;10442;49.932;11.592;2024-03-06T06:45:17;9.50;75.90
20568;DHT22;10442;49.932;11.592;2024-03-06T06:47:45;9.60;75.80
20568;DHT22;10442;49.932;11.592;2024-03-06T06:50:16;9.60;75.60
20568;DHT22;10442;49.932;11.592;2024-03-06T06:52:43;9.70;75.70
20568;DHT22;10442;49.932;11.592;2024-03-06T06:55:11;9.80;75.70
20568;DHT22;10442;49.932;11.592;2024-03-06T06:57:41;9.80;75.70
20568;DHT22;10442;49.932;11.592;2024-03-06T07:00:10;9.90;75.70
20568;DHT22;10442;49.932;11.592;2024-03-06T07:02:41;10.00;75.60
20568;DHT22;10442;49.932;11.592;2024-03-06T07:05:12;10.10;75.70
20568;DHT22;10442;49.932;11.592;2024-03-06T07:07:39;10.20;75.60
20568;DHT22;10442;49.932;11.592;2024-03-06T07:10:09;10.40;75.30
20568;DHT22;10442;49.932;11.592;2024-03-06T07:12:37;10.40;75.00
20568;DHT22;10442;49.932;11.592;2024-03-06T07:15:05;10.50;74.90
20568;DHT22;10442;49.932;11.592;2024-03-06T07:17:34;10.60;74.60
20568;DHT22;10442;49.932;11.592;2024-03-06T07:20:02;10.70;74.60
20568;DHT22;10442;49.932;11.592;2024-03-06T07:22:32;10.80;74.40
20568;DHT22;10442;49.932;11.592;2024-03-06T07:25:03;10.90;74.20
20568;DHT22;10442;49.932;11.592;2024-03-06T07:27:30;11.00;74.10
20568;DHT22;10442;49.932;11.592;2024-03-06T07:29:58;11.20;74.60
20568;DHT22;10442;49.932;11.592;2024-03-06T07:32:25;11.60;75.00
20568;DHT22;10442;49.932;11.592;2024-03-06T07:34:53;12.00;74.10
20568;DHT22;10442;49.932;11.592;2024-03-06T07:37:21;12.30;72.90
20568;DHT22;10442;49.932;11.592;2024-03-06T07:39:50;12.60;71.50
20568;DHT22;10442;49.932;11.592;2024-03-06T07:42:20;12.80;70.00
20568;DHT22;10442;49.932;11.592;2024-03-06T07:44:49;13.00;69.20
20568;DHT22;10442;49.932;11.592;2024-03-06T07:47:18;13.00;68.60
20568;DHT22;10442;49.932;11.592;2024-03-06T07:49:47;13.00;68.00
20568;DHT22;10442;49.932;11.592;2024-03-06T07:52:14;13.00;67.70
20568;DHT22;10442;49.932;11.592;2024-03-06T07:54:42;13.00;67.50
20568;DHT22;10442;49.932;11.592;2024-03-06T07:57:09;12.90;67.50
20568;DHT22;10442;49.932;11.592;2024-03-06T07:59:37;12.90;67.50
20568;DHT22;10442;49.932;11.592;2024-03-06T08:02:05;12.90;67.50
20568;DHT22;10442;49.932;11.592;2024-03-06T08:04:35;12.80;67.40
20568;DHT22;10442;49.932;11.592;2024-03-06T08:07:04;12.80;68.30
20568;DHT22;10442;49.932;11.592;2024-03-06T08:09:33;12.80;67.20
20568;DHT22;10442;49.932;11.592;2024-03-06T08:12:03;12.80;66.90
20568;DHT22;10442;49.932;11.592;2024-03-06T08:14:30;12.90;67.20
20568;DHT22;10442;49.932;11.592;2024-03-06T08:16:59;12.90;67.50
20568;DHT22;10442;49.932;11.592;2024-03-06T08:19:26;13.00;67.80
20568;DHT22;10442;49.932;11.592;2024-03-06T08:21:53;13.30;67.90
20568;DHT22;10442;49.932;11.592;2024-03-06T08:24:21;13.60;66.40
20568;DHT22;10442;49.932;11.592;2024-03-06T08:26:50;13.90;65.10
20568;DHT22;10442;49.932;11.592;2024-03-06T08:29:17;14.10;64.10
20568;DHT22;10442;49.932;11.592;2024-03-06T08:31:45;14.30;62.80
20568;DHT22;10442;49.932;11.592;2024-03-06T08:34:13;14.50;61.70
20568;DHT22;10442;49.932;11.592;2024-03-06T08:36:41;14.60;61.10
20568;DHT22;10442;49.932;11.592;2024-03-06T08:39:09;14.70;60.50
20568;DHT22;10442;49.932;11.592;2024-03-06T08:41:40;14.80;59.80
20568;DHT22;10442;49.932;11.592;2024-03-06T08:44:12;14.80;59.90
20568;DHT22;10442;49.932;11.592;2024-03-06T08:46:40;14.80;59.60
20568;DHT22;10442;49.932;11.592;2024-03-06T08:49:07;15.00;59.70
20568;DHT22;10442;49.932;11.592;2024-03-06T08:51:37;15.00;59.50
20568;DHT22;10442;49.932;11.592;2024-03-06T08:54:05;15.20;58.90
20568;DHT22;10442;49.932;11.592;2024-03-06T08:56:33;15.40;58.40
20568;DHT22;10442;49.932;11.592;2024-03-06T08:59:01;15.60;58.50
20568;DHT22;10442;49.932;11.592;2024-03-06T09:01:30;15.60;56.90
20568;DHT22;10442;49.932;11.592;2024-03-06T09:03:59;15.60;56.40
20568;DHT22;10442;49.932;11.592;2024-03-06T09:06:27;15.60;56.40
20568;DHT22;10442;49.932;11.592;2024-03-06T09:08:55;15.50;56.30
20568;DHT22;10442;49.932;11.592;2024-03-06T09:11:23;15.40;56.40
20568;DHT22;10442;49.932;11.592;2024-03-06T09:13:52;15.20;56.30
20568;DHT22;10442;49.932;11.592;2024-03-06T09:16:21;15.10;56.50
20568;DHT22;10442;49.932;11.592;2024-03-06T09:18:48;15.00;56.80
20568;DHT22;10442;49.932;11.592;2024-03-06T09:21:16;14.90;57.10
20568;DHT22;10442;49.932;11.592;2024-03-06T09:23:43;14.80;57.60
20568;DHT22;10442;49.932;11.592;2024-03-06T09:26:11;14.80;58.00
20568;DHT22;10442;49.932;11.592;2024-03-06T09:28:41;14.80;57.70
20568;DHT22;10442;49.932;11.592;2024-03-06T09:31:08;14.80;57.70
20568;DHT22;10442;49.932;11.592;2024-03-06T09:33:39;14.80;57.90
20568;DHT22;10442;49.932;11.592;2024-03-06T09:36:10;14.80;57.20
20568;DHT22;10442;49.932;11.592;2024-03-06T09:38:40;14.80;57.30
20568;DHT22;10442;49.932;11.592;2024-03-06T09:41:09;14.80;57.50
20568;DHT22;10442;49.932;11.592;2024-03-06T09:43:36;14.80;57.30
20568;DHT22;10442;49.932;11.592;2024-03-06T09:46:04;14.70;57.40
20568;DHT22;10442;49.932;11.592;2024-03-06T09:48:33;14.80;57.60
20568;DHT22;10442;49.932;11.592;2024-03-06T09:51:04;14.70;57.20
20568;DHT22;10442;49.932;11.592;2024-03-06T09:53:31;14.70;57.20
20568;DHT22;10442;49.932;11.592;2024-03-06T09:56:00;14.60;57.50
20568;DHT22;10442;49.932;11.592;2024-03-06T09:58:27;14.50;57.30
20568;DHT22;10442;49.932;11.592;2024-03-06T10:00:57;14.50;57.70
20568;DHT22;10442;49.932;11.592;2024-03-06T10:03:26;14.40;57.70
20568;DHT22;10442;49.932;11.592;2024-03-06T10:05:54;14.30;57.50
20568;DHT22;10442;49.932;11.592;2024-03-06T10:08:23;14.30;57.90
20568;DHT22;10442;49.932;11.592;2024-03-06T10:10:54;14.30;57.80
20568;DHT22;10442;49.932;11.592;2024-03-06T10:13:27;14.30;57.70
20568;DHT22;10442;49.932;11.592;2024-03-06T10:16:02;14.20;57.70
20568;DHT22;10442;49.932;11.592;2024-03-06T10:18:31;14.20;57.90
20568;DHT22;10442;49.932;11.592;2024-03-06T10:21:01;14.10;57.90
20568;DHT22;10442;49.932;11.592;2024-03-06T10:23:30;14.10;58.10
20568;DHT22;10442;49.932;11.592;2024-03-06T10:25:57;14.00;58.30
20568;DHT22;10442;49.932;11.592;2024-03-06T10:28:25;14.10;58.50
20568;DHT22;10442;49.932;11.592;2024-03-06T10:31:03;14.10;58.40
20568;DHT22;10442;49.932;11.592;2024-03-06T10:33:33;14.10;58.20
20568;DHT22;10442;49.932;11.592;2024-03-06T10:36:02;14.10;58.30
20568;DHT22;10442;49.932;11.592;2024-03-06T10:38:36;14.10;58.50
20568;DHT22;10442;49.932;11.592;2024-03-06T10:41:07;14.10;58.40
20568;DHT22;10442;49.932;11.592;2024-03-06T10:43:36;14.20;58.50
20568;DHT22;10442;49.932;11.592;2024-03-06T10:46:06;14.20;58.30
20568;DHT22;10442;49.932;11.592;2024-03-06T10:48:36;14.10;58.20
20568;DHT22;10442;49.932;11.592;2024-03-06T10:51:06;14.20;58.50
20568;DHT22;10442;49.932;11.592;2024-03-06T10:53:36;14.20;58.40
20568;DHT22;10442;49.932;11.592;2024-03-06T10:56:08;14.30;58.50
20568;DHT22;10442;49.932;11.592;2024-03-06T10:58:37;14.30;58.10
20568;DHT22;10442;49.932;11.592;2024-03-06T11:01:07;14.40;58.20
20568;DHT22;10442;49.932;11.592;2024-03-06T11:03:37;14.40;58.30
20568;DHT22;10442;49.932;11.592;2024-03-06T11:06:06;14.40;58.30
20568;DHT22;10442;49.932;11.592;2024-03-06T11:08:34;14.60;58.30
20568;DHT22;10442;49.932;11.592;2024-03-06T11:11:22;14.50;57.80
20568;DHT22;10442;49.932;11.592;2024-03-06T11:13:54;14.60;57.60
20568;DHT22;10442;49.932;11.592;2024-03-06T11:16:29;14.60;57.80
20568;DHT22;10442;49.932;11.592;2024-03-06T11:19:07;14.70;57.60
20568;DHT22;10442;49.932;11.592;2024-03-06T11:21:45;14.70;57.70
20568;DHT22;10442;49.932;11.592;2024-03-06T11:24:31;14.70;57.20
20568;DHT22;10442;49.932;11.592;2024-03-06T11:27:01;14.80;57.10
20568;DHT22;10442;49.932;11.592;2024-03-06T11:29:32;14.80;56.90
20568;DHT22;10442;49.932;11.592;2024-03-06T11:32:19;14.80;56.80
20568;DHT22;10442;49.932;11.592;2024-03-06T11:34:46;14.90;56.60
20568;DHT22;10442;49.932;11.592;2024-03-06T11:37:20;14.90;56.50
20568;DHT22;10442;49.932;11.592;2024-03-06T11:39:49;15.00;56.50
20568;DHT22;10442;49.932;11.592;2024-03-06T11:42:17;15.00;56.40
20568;DHT22;10442;49.932;11.592;2024-03-06T11:44:54;15.10;55.80
20568;DHT22;10442;49.932;11.592;2024-03-06T11:47:26;15.10;55.90
20568;DHT22;10442;49.932;11.592;2024-03-06T11:49:54;15.20;56.10
20568;DHT22;10442;49.932;11.592;2024-03-06T11:52:22;15.20;55.20
20568;DHT22;10442;49.932;11.592;2024-03-06T11:54:51;15.30;55.00
20568;DHT22;10442;49.932;11.592;2024-03-06T11:57:19;15.30;54.60
20568;DHT22;10442;49.932;11.592;2024-03-06T11:59:49;15.30;54.60
20568;DHT22;10442;49.932;11.592;2024-03-06T12:02:17;15.40;54.20
20568;DHT22;10442;49.932;11.592;2024-03-06T12:04:45;15.40;54.50
20568;DHT22;10442;49.932;11.592;2024-03-06T12:07:12;15.40;54.00
20568;DHT22;10442;49.932;11.592;2024-03-06T12:09:40;15.50;54.40
20568;DHT22;10442;49.932;11.592;2024-03-06T12:12:10;15.50;54.60
20568;DHT22;10442;49.932;11.592;2024-03-06T12:14:39;15.50;54.60
20568;DHT22;10442;49.932;11.592;2024-03-06T12:17:12;15.60;54.30
20568;DHT22;10442;49.932;11.592;2024-03-06T12:19:43;15.60;54.10
20568;DHT22;10442;49.932;11.592;2024-03-06T12:22:12;15.60;54.10
20568;DHT22;10442;49.932;11.592;2024-03-06T12:24:41;15.60;54.10
20568;DHT22;10442;49.932;11.592;2024-03-06T12:27:08;15.70;54.30
20568;DHT22;10442;49.932;11.592;2024-03-06T12:29:37;15.80;54.20
20568;DHT22;10442;49.932;11.592;2024-03-06T12:32:16;15.80;53.90
20568;DHT22;10442;49.932;11.592;2024-03-06T12:34:56;15.90;54.20
20568;DHT22;10442;49.932;11.592;2024-03-06T12:37:30;15.90;53.80
20568;DHT22;10442;49.932;11.592;2024-03-06T12:39:59;15.90;53.70
20568;DHT22;10442;49.932;11.592;2024-03-06T12:42:27;15.90;53.70
20568;DHT22;10442;49.932;11.592;2024-03-06T12:44:57;16.00;54.10
20568;DHT22;10442;49.932;11.592;2024-03-06T12:47:25;16.00;54.10
20568;DHT22;10442;49.932;11.592;2024-03-06T12:49:53;16.00;53.60
20568;DHT22;10442;49.932;11.592;2024-03-06T12:52:20;16.00;52.70
20568;DHT22;10442;49.932;11.592;2024-03-06T12:54:48;16.00;53.20
20568;DHT22;10442;49.932;11.592;2024-03-06T12:57:17;16.00;53.20
20568;DHT22;10442;49.932;11.592;2024-03-06T12:59:47;16.00;53.50
20568;DHT22;10442;49.932;11.592;2024-03-06T13:02:14;16.00;53.40
20568;DHT22;10442;49.932;11.592;2024-03-06T13:04:43;16.00;53.50
20568;DHT22;10442;49.932;11.592;2024-03-06T13:07:11;15.90;53.80
20568;DHT22;10442;49.932;11.592;2024-03-06T13:09:38;15.90;54.00
20568;DHT22;10442;49.932;11.592;2024-03-06T13:12:06;15.80;53.80
20568;DHT22;10442;49.932;11.592;2024-03-06T13:14:35;15.70;53.70
20568;DHT22;10442;49.932;11.592;2024-03-06T13:17:03;15.60;54.30
20568;DHT22;10442;49.932;11.592;2024-03-06T13:19:31;15.70;54.50
20568;DHT22;10442;49.932;11.592;2024-03-06T13:21:59;15.70;54.70
20568;DHT22;10442;49.932;11.592;2024-03-06T13:24:33;15.80;54.40
20568;DHT22;10442;49.932;11.592;2024-03-06T13:27:01;15.80;53.90
20568;DHT22;10442;49.932;11.592;2024-03-06T13:29:29;15.80;53.60
20568;DHT22;10442;49.932;11.592;2024-03-06T13:31:57;15.70;53.40
20568;DHT22;10442;49.932;11.592;2024-03-06T13:34:24;15.70;53.20
20568;DHT22;10442;49.932;11.592;2024-03-06T13:36:52;15.60;53.00
20568;DHT22;10442;49.932;11.592;2024-03-06T13:39:21;15.60;53.20
20568;DHT22;10442;49.932;11.592;2024-03-06T13:41:49;15.50;53.20
20568;DHT22;10442;49.932;11.592;2024-03-06T13:44:16;15.50;53.30
20568;DHT22;10442;49.932;11.592;2024-03-06T13:46:46;15.40;53.50
20568;DHT22;10442;49.932;11.592;2024-03-06T13:49:42;15.40;53.30
20568;DHT22;10442;49.932;11.592;2024-03-06T13:52:11;15.30;52.70
20568;DHT22;10442;49.932;11.592;2024-03-06T13:54:42;15.30;52.90
20568;DHT22;10442;49.932;11.592;2024-03-06T13:57:11;15.30;52.90
20568;DHT22;10442;49.932;11.592;2024-03-06T13:59:39;15.30;53.10
20568;DHT22;10442;49.932;11.592;2024-03-06T14:02:08;15.20;52.70
20568;DHT22;10442;49.932;11.592;2024-03-06T14:04:36;15.20;52.60
20568;DHT22;10442;49.932;11.592;2024-03-06T14:07:03;15.10;52.40
20568;DHT22;10442;49.932;11.592;2024-03-06T14:09:32;15.10;52.70
20568;DHT22;10442;49.932;11.592;2024-03-06T14:12:01;14.90;52.40
20568;DHT22;10442;49.932;11.592;2024-03-06T14:14:31;14.80;52.50
20568;DHT22;10442;49.932;11.592;2024-03-06T14:16:59;14.70;52.40
20568;DHT22;10442;49.932;11.592;2024-03-06T14:19:27;14.70;52.90
20568;DHT22;10442;49.932;11.592;2024-03-06T14:21:56;14.60;52.80
20568;DHT22;10442;49.932;11.592;2024-03-06T14:24:28;14.60;52.90
20568;DHT22;10442;49.932;11.592;2024-03-06T14:26:55;14.60;52.40
20568;DHT22;10442;49.932;11.592;2024-03-06T14:29:23;14.60;52.30
20568;DHT22;10442;49.932;11.592;2024-03-06T14:31:52;14.50;52.40
20568;DHT22;10442;49.932;11.592;2024-03-06T14:34:20;14.50;52.30
20568;DHT22;10442;49.932;11.592;2024-03-06T14:36:53;14.40;52.40
20568;DHT22;10442;49.932;11.592;2024-03-06T14:39:21;14.40;52.20
20568;DHT22;10442;49.932;11.592;2024-03-06T14:41:51;14.30;52.30
20568;DHT22;10442;49.932;11.592;2024-03-06T14:44:20;14.20;52.20
20568;DHT22;10442;49.932;11.592;2024-03-06T14:46:47;14.20;52.50
20568;DHT22;10442;49.932;11.592;2024-03-06T14:49:16;14.10;52.50
20568;DHT22;10442;49.932;11.592;2024-03-06T14:51:44;14.00;52.30
20568;DHT22;10442;49.932;11.592;2024-03-06T14:54:12;13.90;52.40
20568;DHT22;10442;49.932;11.592;2024-03-06T14:56:41;13.90;52.70
20568;DHT22;10442;49.932;11.592;2024-03-06T14:59:11;13.80;52.60
20568;DHT22;10442;49.932;11.592;2024-03-06T15:01:38;13.80;52.50
20568;DHT22;10442;49.932;11.592;2024-03-06T15:04:06;13.80;52.50
20568;DHT22;10442;49.932;11.592;2024-03-06T15:06:35;13.80;52.50
20568;DHT22;10442;49.932;11.592;2024-03-06T15:09:02;13.80;52.80
20568;DHT22;10442;49.932;11.592;2024-03-06T15:11:32;13.80;52.80
20568;DHT22;10442;49.932;11.592;2024-03-06T15:14:00;13.80;53.00
20568;DHT22;10442;49.932;11.592;2024-03-06T15:16:30;13.90;53.00
20568;DHT22;10442;49.932;11.592;2024-03-06T15:18:57;13.90;52.70
20568;DHT22;10442;49.932;11.592;2024-03-06T15:21:26;14.00;52.60
20568;DHT22;10442;49.932;11.592;2024-03-06T15:23:54;14.00;52.20
20568;DHT22;10442;49.932;11.592;2024-03-06T15:26:23;14.00;51.80
20568;DHT22;10442;49.932;11.592;2024-03-06T15:28:50;14.00;52.00
20568;DHT22;10442;49.932;11.592;2024-03-06T15:31:19;14.10;52.00
20568;DHT22;10442;49.932;11.592;2024-03-06T15:33:49;14.00;52.00